Time;durP1;ratioP1;P1;durP2;ratioP2;P2;SDS_P1;SDS_P2;PMS_P1;PMS_P2;Temp;Humidity;BMP_temperature;BMP_pressure;BME280_temperature;BME280_humidity;BME280_pressure;Samples;Min_cycle;Max_cycle;Signal;HPM_P1;HPM_P2
2022/01/31 00:00:30;;;;;;;47.45;7.40;;;4.00;99.90;;;;;;5050773;28;20032;-44
2022/01/31 00:02:56;;;;;;;42.50;7.88;;;4.00;99.90;;;;;;5049201;28;20442;-45
2022/01/31 00:05:21;;;;;;;40.63;6.82;;;4.00;99.90;;;;;;5050619;28;20391;-45
2022/01/31 00:07:47;;;;;;;30.48;5.65;;;4.00;99.90;;;;;;5049845;28;20517;-45
2022/01/31 00:10:14;;;;;;;29.50;6.80;;;3.90;99.90;;;;;;5050529;28;20037;-44
2022/01/31 00:13:05;;;;;;;42.63;7.68;;;4.00;99.90;;;;;;5050524;28;20021;-44
2022/01/31 00:15:26;;;;;;;43.80;8.07;;;3.90;99.90;;;;;;5050370;28;20216;-44
2022/01/31 00:17:52;;;;;;;48.33;9.60;;;3.90;99.90;;;;;;5049963;28;20582;-44
2022/01/31 00:20:18;;;;;;;48.05;8.18;;;3.90;99.90;;;;;;5050018;28;20033;-45
2022/01/31 00:22:43;;;;;;;36.65;6.47;;;3.90;99.90;;;;;;5050049;28;20052;-44
2022/01/31 00:25:09;;;;;;;36.25;7.47;;;3.90;99.90;;;;;;5050341;28;20032;-44
2022/01/31 00:27:34;;;;;;;40.75;8.00;;;3.90;99.90;;;;;;5049635;28;20631;-45
2022/01/31 00:30:00;;;;;;;39.97;8.52;;;3.90;99.90;;;;;;5050251;28;20029;-45
2022/01/31 00:32:29;;;;;;;33.92;6.70;;;3.90;99.90;;;;;;5050052;28;20501;-45
2022/01/31 00:34:58;;;;;;;48.97;7.65;;;3.90;99.90;;;;;;5049919;28;20025;-45
2022/01/31 00:37:23;;;;;;;46.17;8.40;;;3.90;99.90;;;;;;5049426;28;20066;-45
2022/01/31 00:39:49;;;;;;;36.60;8.02;;;3.90;99.90;;;;;;5050296;28;20044;-44
2022/01/31 00:42:15;;;;;;;41.13;8.13;;;3.90;99.90;;;;;;5049893;28;20028;-45
2022/01/31 00:45:15;;;;;;;47.15;9.52;;;3.90;99.90;;;;;;5050072;28;20482;-45
2022/01/31 00:47:32;;;;;;;46.95;8.88;;;3.90;99.90;;;;;;5049154;28;20041;-44
2022/01/31 00:50:07;;;;;;;30.08;7.13;;;3.80;99.90;;;;;;5066792;28;20485;-45
2022/01/31 00:52:34;;;;;;;44.65;6.72;;;3.90;99.90;;;;;;5069780;28;20020;-44
2022/01/31 00:55:00;;;;;;;34.53;6.30;;;3.80;99.90;;;;;;5068599;28;20027;-45
2022/01/31 00:57:25;;;;;;;32.13;7.50;;;3.80;99.90;;;;;;5069101;28;20431;-45
2022/01/31 00:59:51;;;;;;;49.85;8.07;;;3.80;99.90;;;;;;5069997;28;20025;-47
2022/01/31 01:02:20;;;;;;;44.03;9.18;;;3.90;99.90;;;;;;5069378;28;20028;-45
2022/01/31 01:04:46;;;;;;;40.38;7.43;;;3.90;99.90;;;;;;5069497;28;20166;-44
2022/01/31 01:07:14;;;;;;;43.45;7.35;;;3.90;99.90;;;;;;5069321;28;20112;-45
2022/01/31 01:09:41;;;;;;;30.85;8.23;;;4.00;99.90;;;;;;5067883;28;20025;-45
2022/01/31 01:12:10;;;;;;;41.10;6.75;;;4.00;99.90;;;;;;5069185;28;20020;-44
2022/01/31 01:14:36;;;;;;;47.58;7.00;;;4.00;99.90;;;;;;5069612;28;20125;-47
2022/01/31 01:17:01;;;;;;;36.28;6.65;;;3.90;99.90;;;;;;5069149;28;20482;-45
2022/01/31 01:19:27;;;;;;;43.15;7.70;;;3.90;99.90;;;;;;5068620;28;20028;-45
2022/01/31 01:21:52;;;;;;;31.95;6.25;;;3.90;99.90;;;;;;5069574;28;20020;-47
2022/01/31 01:24:18;;;;;;;53.45;9.80;;;3.90;99.90;;;;;;5069230;28;20482;-46
2022/01/31 01:26:44;;;;;;;38.15;6.22;;;3.90;99.90;;;;;;5069162;28;20032;-45
2022/01/31 01:29:10;;;;;;;37.63;7.82;;;3.90;99.90;;;;;;5068354;28;20070;-45
2022/01/31 01:31:35;;;;;;;39.20;7.13;;;3.90;99.90;;;;;;5069085;28;20237;-47
2022/01/31 01:34:01;;;;;;;46.38;8.95;;;3.80;99.90;;;;;;5068357;28;20025;-44
2022/01/31 01:36:28;;;;;;;27.77;6.40;;;3.90;99.90;;;;;;5067690;28;20486;-44
2022/01/31 01:38:53;;;;;;;43.35;7.60;;;3.80;99.90;;;;;;5067011;28;20028;-44
2022/01/31 01:41:19;;;;;;;31.23;7.82;;;3.80;99.90;;;;;;5067486;28;20024;-45
2022/01/31 01:43:45;;;;;;;41.22;7.35;;;3.80;99.90;;;;;;5068724;28;20437;-45
2022/01/31 01:46:10;;;;;;;31.48;6.55;;;3.80;99.90;;;;;;5068823;28;20040;-44
2022/01/31 01:48:37;;;;;;;38.35;7.93;;;3.80;99.90;;;;;;5068148;28;20476;-46
2022/01/31 01:51:03;;;;;;;27.00;6.70;;;3.80;99.90;;;;;;5068659;28;20036;-44
2022/01/31 01:53:30;;;;;;;40.70;7.72;;;3.80;99.90;;;;;;5069115;28;20036;-45
2022/01/31 01:55:56;;;;;;;43.35;7.38;;;3.80;99.90;;;;;;5068617;28;20074;-45
2022/01/31 01:58:24;;;;;;;36.17;8.57;;;3.70;99.90;;;;;;5068051;28;20032;-44
2022/01/31 02:00:59;;;;;;;40.33;7.47;;;3.70;99.90;;;;;;5068924;28;20498;-45
2022/01/31 02:03:27;;;;;;;43.28;7.47;;;3.60;99.90;;;;;;5068692;28;20486;-45
2022/01/31 02:05:55;;;;;;;46.45;7.50;;;3.50;99.90;;;;;;5068596;28;20024;-45
2022/01/31 02:08:22;;;;;;;36.90;8.15;;;3.50;99.90;;;;;;5068249;28;20433;-45
2022/01/31 02:10:48;;;;;;;50.33;10.77;;;3.40;99.90;;;;;;5067182;28;20029;-45
2022/01/31 02:13:16;;;;;;;31.90;7.30;;;3.40;99.90;;;;;;5068418;28;20089;-45
2022/01/31 02:15:46;;;;;;;33.38;6.13;;;3.40;99.90;;;;;;5067233;28;20016;-44
2022/01/31 02:18:12;;;;;;;39.27;9.00;;;3.40;99.90;;;;;;5067840;28;20044;-45
2022/01/31 02:20:40;;;;;;;45.55;7.20;;;3.40;99.90;;;;;;5068440;28;20013;-45
2022/01/31 02:23:10;;;;;;;33.75;7.53;;;3.50;99.90;;;;;;5068159;28;20379;-44
2022/01/31 02:25:54;;;;;;;41.63;7.53;;;3.50;99.90;;;;;;5068583;28;20037;-44
2022/01/31 02:28:22;;;;;;;45.97;8.70;;;3.40;99.90;;;;;;5067990;28;20021;-44
2022/01/31 02:30:48;;;;;;;56.88;8.35;;;3.40;99.90;;;;;;5068948;28;20052;-44
2022/01/31 02:33:13;;;;;;;35.70;6.18;;;3.40;99.90;;;;;;5068845;28;20150;-44
2022/01/31 02:35:39;;;;;;;40.33;6.65;;;3.40;99.90;;;;;;5068281;28;20025;-46
2022/01/31 02:38:04;;;;;;;43.38;7.60;;;3.40;99.90;;;;;;5067749;28;20386;-44
2022/01/31 02:40:30;;;;;;;33.10;8.10;;;3.40;99.90;;;;;;5068319;28;20025;-44
2022/01/31 02:42:56;;;;;;;48.88;7.55;;;3.40;99.90;;;;;;5068441;28;20071;-45
2022/01/31 02:45:22;;;;;;;35.75;7.75;;;3.40;99.90;;;;;;5069558;28;20052;-45
2022/01/31 02:47:53;;;;;;;38.47;6.30;;;3.40;99.90;;;;;;5071446;28;20071;-44
2022/01/31 02:50:19;;;;;;;32.10;7.15;;;3.50;99.90;;;;;;5071923;28;20028;-44
2022/01/31 02:52:48;;;;;;;32.78;7.90;;;3.60;99.90;;;;;;5071892;28;20478;-44
2022/01/31 02:55:15;;;;;;;58.58;9.73;;;3.50;99.90;;;;;;5067801;28;20041;-44
2022/01/31 02:57:41;;;;;;;47.10;8.45;;;3.50;99.90;;;;;;5051488;28;20023;-43
2022/01/31 03:00:08;;;;;;;46.33;7.55;;;3.50;99.90;;;;;;5050819;28;20029;-44
2022/01/31 03:02:33;;;;;;;46.30;8.90;;;3.50;99.90;;;;;;5051676;28;20718;-44
2022/01/31 03:04:59;;;;;;;37.88;6.63;;;3.50;99.90;;;;;;5051853;28;20170;-44
2022/01/31 03:07:24;;;;;;;46.30;8.63;;;3.50;99.90;;;;;;5051165;28;20072;-43
2022/01/31 03:09:49;;;;;;;59.00;8.23;;;3.50;99.90;;;;;;5051749;28;20057;-44
2022/01/31 03:12:16;;;;;;;35.70;6.60;;;3.50;99.90;;;;;;5051602;28;20036;-44
2022/01/31 03:14:42;;;;;;;56.38;8.43;;;3.50;99.90;;;;;;5051555;28;20104;-44
2022/01/31 03:17:09;;;;;;;44.50;7.50;;;3.50;99.90;;;;;;5051941;28;20498;-44
2022/01/31 03:19:38;;;;;;;34.30;6.75;;;3.50;99.90;;;;;;5051003;28;20159;-44
2022/01/31 03:22:05;;;;;;;45.05;8.00;;;3.50;99.90;;;;;;5051930;28;20569;-44
2022/01/31 03:24:31;;;;;;;49.35;8.73;;;3.50;99.90;;;;;;5051612;28;20025;-45
2022/01/31 03:26:56;;;;;;;44.45;8.55;;;3.40;99.90;;;;;;5051455;28;20028;-44
2022/01/31 03:29:22;;;;;;;46.88;8.18;;;3.40;99.90;;;;;;5049429;28;20397;-43
2022/01/31 03:31:47;;;;;;;29.95;6.32;;;3.50;99.90;;;;;;5051064;28;20033;-43
2022/01/31 03:34:13;;;;;;;42.65;7.07;;;3.50;99.90;;;;;;5051240;28;20021;-43
2022/01/31 03:36:38;;;;;;;39.50;6.68;;;3.50;99.90;;;;;;5051165;28;20036;-43
2022/01/31 03:39:04;;;;;;;42.03;7.82;;;3.50;99.90;;;;;;5049184;28;20029;-43
2022/01/31 03:41:30;;;;;;;33.47;6.95;;;3.50;99.90;;;;;;5051484;28;20163;-43
2022/01/31 03:43:55;;;;;;;44.83;9.65;;;3.50;99.90;;;;;;5051006;28;20112;-43
2022/01/31 03:46:22;;;;;;;45.03;7.65;;;3.50;99.90;;;;;;5050857;28;20025;-46
2022/01/31 03:48:48;;;;;;;41.03;7.70;;;3.40;99.90;;;;;;5050417;28;20024;-44
2022/01/31 03:51:14;;;;;;;36.45;8.38;;;3.50;99.90;;;;;;5050871;28;20036;-43
2022/01/31 03:53:39;;;;;;;40.00;7.03;;;3.50;99.90;;;;;;5051087;28;20032;-43
2022/01/31 03:56:05;;;;;;;39.30;7.00;;;3.50;99.90;;;;;;5050865;28;20103;-43
2022/01/31 03:58:30;;;;;;;41.28;7.07;;;3.50;99.90;;;;;;5049686;28;20025;-43
2022/01/31 04:00:56;;;;;;;35.90;7.28;;;3.50;99.90;;;;;;5049420;28;20382;-43
2022/01/31 04:03:21;;;;;;;42.05;7.85;;;3.40;99.90;;;;;;5050884;28;20104;-44
2022/01/31 04:05:47;;;;;;;40.38;7.97;;;3.40;99.90;;;;;;5050702;28;20037;-43
2022/01/31 04:08:12;;;;;;;41.13;7.38;;;3.40;99.90;;;;;;5050084;28;20074;-43
2022/01/31 04:10:38;;;;;;;45.53;8.30;;;3.40;99.90;;;;;;5050752;28;20458;-43
2022/01/31 04:13:06;;;;;;;39.30;6.40;;;3.40;99.90;;;;;;5050378;28;20029;-44
2022/01/31 04:15:32;;;;;;;30.98;8.32;;;3.40;99.90;;;;;;5050295;28;20024;-43
2022/01/31 04:17:57;;;;;;;38.10;6.57;;;3.40;99.90;;;;;;5049905;28;20029;-45
2022/01/31 04:20:23;;;;;;;42.28;8.30;;;3.40;99.90;;;;;;5050700;28;20086;-43
2022/01/31 04:22:59;;;;;;;39.53;7.32;;;3.40;99.90;;;;;;5050229;28;20033;-44
2022/01/31 04:26:11;;;;;;;34.22;7.90;;;3.40;99.90;;;;;;5050357;28;20025;-43
2022/01/31 04:28:21;;;;;;;39.47;6.38;;;3.40;99.90;;;;;;5048940;28;20056;-43
2022/01/31 04:30:54;;;;;;;36.97;6.80;;;3.50;99.90;;;;;;5048991;28;20379;-43
2022/01/31 04:33:20;;;;;;;36.80;7.30;;;3.50;99.90;;;;;;5050061;28;20021;-44
2022/01/31 04:35:46;;;;;;;34.60;6.95;;;3.50;99.90;;;;;;5048702;28;20032;-44
2022/01/31 04:38:12;;;;;;;38.17;6.63;;;3.50;99.90;;;;;;5049415;28;20032;-43
2022/01/31 04:40:37;;;;;;;30.27;5.85;;;3.50;99.90;;;;;;5049943;28;20394;-43
2022/01/31 04:43:03;;;;;;;24.88;6.68;;;3.50;99.90;;;;;;5050147;28;20033;-45
2022/01/31 04:45:28;;;;;;;39.42;7.03;;;3.50;99.90;;;;;;5048542;28;20037;-44
2022/01/31 04:47:55;;;;;;;28.25;6.30;;;3.50;99.90;;;;;;5049378;28;20036;-44
2022/01/31 04:50:21;;;;;;;46.47;9.48;;;3.50;99.90;;;;;;5045155;28;20063;-43
2022/01/31 04:52:46;;;;;;;32.15;7.82;;;3.50;99.90;;;;;;5049677;28;20025;-43
2022/01/31 04:55:12;;;;;;;22.88;5.55;;;3.50;99.90;;;;;;5048281;28;20033;-44
2022/01/31 04:57:38;;;;;;;35.00;6.88;;;3.60;99.90;;;;;;5047421;28;20017;-44
2022/01/31 05:00:06;;;;;;;26.50;6.10;;;3.60;99.90;;;;;;5048505;28;20462;-44
2022/01/31 05:02:31;;;;;;;33.47;6.30;;;3.60;99.90;;;;;;5049673;28;20025;-43
2022/01/31 05:04:56;;;;;;;34.78;7.53;;;3.60;99.90;;;;;;5049166;28;20025;-44
2022/01/31 05:07:22;;;;;;;29.85;6.68;;;3.60;99.90;;;;;;5048856;28;20090;-43
2022/01/31 05:09:48;;;;;;;37.55;7.00;;;3.50;99.90;;;;;;5047242;28;20071;-43
2022/01/31 05:12:14;;;;;;;29.48;7.15;;;3.50;99.90;;;;;;5049288;28;20029;-44
2022/01/31 05:14:39;;;;;;;29.42;6.97;;;3.50;99.90;;;;;;5049274;28;20036;-43
2022/01/31 05:17:05;;;;;;;29.30;7.03;;;3.50;99.90;;;;;;5049314;28;20329;-44
2022/01/31 05:19:30;;;;;;;31.50;6.85;;;3.60;99.90;;;;;;5046968;28;20068;-43
2022/01/31 05:21:56;;;;;;;38.15;7.57;;;3.60;99.90;;;;;;5049238;28;20162;-43
2022/01/31 05:24:21;;;;;;;29.05;6.55;;;3.60;99.90;;;;;;5049144;28;20037;-43
2022/01/31 05:26:50;;;;;;;29.75;6.82;;;3.60;99.90;;;;;;5049026;28;20441;-44
2022/01/31 05:29:20;;;;;;;27.77;6.68;;;3.50;99.90;;;;;;5048517;28;20494;-44
2022/01/31 05:31:46;;;;;;;24.67;6.72;;;3.70;99.90;;;;;;5047396;28;20494;-43
2022/01/31 05:34:12;;;;;;;34.63;6.70;;;3.60;99.90;;;;;;5048898;28;20036;-43
2022/01/31 05:36:38;;;;;;;32.20;5.78;;;3.60;99.90;;;;;;5048635;28;20498;-43
2022/01/31 05:39:04;;;;;;;23.90;7.00;;;3.60;99.90;;;;;;5049266;28;20124;-43
2022/01/31 05:41:30;;;;;;;31.15;6.50;;;3.60;99.90;;;;;;5049675;28;20028;-44
2022/01/31 05:43:55;;;;;;;25.80;6.07;;;3.40;99.90;;;;;;5041366;28;20079;-44
2022/01/31 05:46:21;;;;;;;23.08;6.78;;;3.40;99.90;;;;;;5039781;28;20025;-43
2022/01/31 05:48:46;;;;;;;40.85;7.60;;;3.40;99.90;;;;;;5045483;28;20029;-43
2022/01/31 05:51:17;;;;;;;31.30;7.25;;;3.30;99.90;;;;;;5047463;28;20032;-43
2022/01/31 05:53:44;;;;;;;26.02;7.15;;;3.20;99.90;;;;;;5047506;28;20471;-43
2022/01/31 05:56:10;;;;;;;34.42;6.57;;;3.10;99.90;;;;;;5047953;28;20057;-44
2022/01/31 05:58:36;;;;;;;36.65;7.78;;;3.10;99.90;;;;;;5046620;28;20048;-44
2022/01/31 06:01:02;;;;;;;23.55;7.28;;;3.00;99.90;;;;;;5047964;28;20565;-44
2022/01/31 06:03:27;;;;;;;29.52;7.03;;;3.00;99.90;;;;;;5048430;28;20037;-44
2022/01/31 06:05:53;;;;;;;39.63;10.20;;;2.90;99.90;;;;;;5048265;28;20479;-43
2022/01/31 06:08:18;;;;;;;26.52;7.28;;;2.90;99.90;;;;;;5047668;28;20129;-44
2022/01/31 06:10:46;;;;;;;26.02;8.13;;;2.80;99.90;;;;;;5048211;28;20037;-44
2022/01/31 06:13:11;;;;;;;36.38;7.97;;;2.80;99.90;;;;;;5048514;28;20268;-43
2022/01/31 06:15:37;;;;;;;27.77;7.10;;;2.70;99.90;;;;;;5048577;28;20031;-44
2022/01/31 06:18:02;;;;;;;26.10;7.90;;;2.60;99.90;;;;;;5049332;28;20028;-43
2022/01/31 06:20:28;;;;;;;29.20;9.13;;;2.60;99.90;;;;;;5052591;28;20631;-43
2022/01/31 06:22:53;;;;;;;21.92;6.93;;;2.60;99.90;;;;;;5055902;28;20033;-44
2022/01/31 06:25:20;;;;;;;35.88;8.40;;;2.50;99.90;;;;;;5068279;28;20087;-44
2022/01/31 06:27:46;;;;;;;34.83;9.13;;;2.50;99.90;;;;;;5060430;28;20020;-44
2022/01/31 06:30:13;;;;;;;28.20;8.38;;;2.40;99.90;;;;;;5058979;28;20021;-44
2022/01/31 06:32:38;;;;;;;26.83;7.60;;;2.40;99.90;;;;;;5047553;28;20042;-44
2022/01/31 06:35:05;;;;;;;32.78;9.40;;;2.40;99.90;;;;;;5042319;28;20037;-44
2022/01/31 06:37:30;;;;;;;27.60;9.32;;;2.30;99.90;;;;;;5041672;28;20036;-44
2022/01/31 06:39:56;;;;;;;34.47;8.13;;;2.20;99.90;;;;;;5050008;28;20021;-44
2022/01/31 06:42:21;;;;;;;27.00;8.43;;;2.10;99.90;;;;;;5048527;28;20677;-46
2022/01/31 06:44:47;;;;;;;34.60;8.43;;;2.10;99.90;;;;;;5045140;28;20037;-44
2022/01/31 06:47:12;;;;;;;32.13;9.25;;;1.90;99.90;;;;;;5033462;28;20041;-44
2022/01/31 06:49:37;;;;;;;27.83;8.30;;;1.90;99.90;;;;;;5048844;28;20045;-44
2022/01/31 06:52:04;;;;;;;33.35;9.05;;;1.90;99.90;;;;;;5042760;28;20119;-47
2022/01/31 06:54:30;;;;;;;30.85;9.30;;;1.80;99.90;;;;;;5048858;28;20132;-45
2022/01/31 06:56:57;;;;;;;33.05;8.65;;;1.90;99.90;;;;;;5048552;28;20103;-45
2022/01/31 06:59:23;;;;;;;31.83;9.85;;;2.00;99.90;;;;;;5031723;28;20033;-44
2022/01/31 07:01:48;;;;;;;34.42;8.68;;;1.90;99.90;;;;;;5032353;28;20040;-46
2022/01/31 07:04:14;;;;;;;30.48;9.40;;;1.90;99.90;;;;;;5031970;28;20090;-47
2022/01/31 07:06:39;;;;;;;26.65;7.78;;;1.90;99.90;;;;;;5042407;28;20625;-45
2022/01/31 07:09:05;;;;;;;21.02;8.50;;;1.90;99.90;;;;;;5052391;28;20052;-45
2022/01/31 07:11:35;;;;;;;29.63;9.43;;;2.00;99.90;;;;;;5039312;28;20052;-44
2022/01/31 07:14:07;;;;;;;;;;;1.90;99.90;;;;;;5053510;28;20029;-45
2022/01/31 07:16:34;;;;;;;29.08;8.70;;;2.00;99.90;;;;;;5050491;28;19908;-44
2022/01/31 07:19:06;;;;;;;21.52;8.88;;;2.00;99.90;;;;;;5057084;28;20025;-46
2022/01/31 07:21:45;;;;;;;17.17;6.65;;;2.00;99.90;;;;;;5052379;28;20039;-44
2022/01/31 07:24:22;;;;;;;21.75;8.20;;;2.00;99.90;;;;;;5052971;28;20049;-46
2022/01/31 07:26:48;;;;;;;22.25;7.10;;;2.00;99.90;;;;;;5045449;28;20498;-45
2022/01/31 07:29:14;;;;;;;31.15;8.82;;;2.00;99.90;;;;;;5031432;28;20067;-44
2022/01/31 07:31:41;;;;;;;21.58;9.48;;;2.10;99.90;;;;;;5031922;28;20214;-45
2022/01/31 07:34:07;;;;;;;27.63;9.82;;;2.10;99.90;;;;;;5032736;28;20014;-45
2022/01/31 07:36:34;;;;;;;21.83;8.18;;;2.10;99.90;;;;;;5032970;28;20372;-44
2022/01/31 07:38:59;;;;;;;21.55;7.55;;;2.10;99.90;;;;;;5034431;28;20029;-45
2022/01/31 07:41:25;;;;;;;21.20;7.75;;;2.20;99.90;;;;;;5033284;28;20091;-44
2022/01/31 07:43:50;;;;;;;19.52;8.13;;;2.20;99.90;;;;;;5034871;28;20487;-44
2022/01/31 07:46:16;;;;;;;27.10;8.02;;;2.20;99.90;;;;;;5032680;28;20041;-44
2022/01/31 07:48:41;;;;;;;27.35;8.65;;;2.20;99.90;;;;;;5045635;28;20112;-45
2022/01/31 07:51:11;;;;;;;20.63;7.57;;;2.20;99.90;;;;;;5042504;28;20037;-47
2022/01/31 07:53:39;;;;;;;20.30;7.90;;;2.20;99.90;;;;;;5063304;28;20526;-44
2022/01/31 07:56:08;;;;;;;31.77;8.90;;;2.20;99.90;;;;;;5058771;28;20563;-45
2022/01/31 07:58:38;;;;;;;23.73;8.20;;;2.20;99.90;;;;;;5051427;28;20163;-46
2022/01/31 08:01:04;;;;;;;19.85;6.63;;;2.20;99.90;;;;;;5048396;28;20025;-44
2022/01/31 08:03:30;;;;;;;23.58;7.85;;;2.20;99.90;;;;;;5032092;28;20029;-44
2022/01/31 08:05:56;;;;;;;19.27;7.65;;;2.20;99.90;;;;;;5035009;28;20047;-45
2022/01/31 08:08:23;;;;;;;18.42;7.68;;;2.20;99.90;;;;;;5051366;28;20672;-44
2022/01/31 08:10:49;;;;;;;23.23;8.80;;;2.20;99.90;;;;;;5039731;28;20033;-45
2022/01/31 08:13:15;;;;;;;20.98;7.55;;;2.10;99.90;;;;;;5032153;28;20029;-44
2022/01/31 08:15:59;;;;;;;22.80;7.07;;;2.10;99.90;;;;;;5032243;28;20018;-45
2022/01/31 08:18:25;;;;;;;18.77;7.22;;;2.00;99.90;;;;;;5038023;28;20497;-45
2022/01/31 08:20:51;;;;;;;23.08;6.97;;;2.00;99.90;;;;;;5049193;28;20045;-45
2022/01/31 08:23:16;;;;;;;17.42;6.55;;;2.00;99.90;;;;;;5031818;28;20068;-46
2022/01/31 08:25:47;;;;;;;21.42;7.30;;;2.00;99.90;;;;;;5031434;28;20052;-45
2022/01/31 08:28:13;;;;;;;19.10;7.15;;;2.00;99.90;;;;;;5049876;28;20418;-46
2022/01/31 08:30:55;;;;;;;18.70;6.85;;;1.90;99.90;;;;;;5042411;28;20041;-45
2022/01/31 08:33:32;;;;;;;18.23;7.25;;;2.00;99.90;;;;;;5033880;28;20032;-45
2022/01/31 08:35:59;;;;;;;12.90;6.32;;;2.00;99.90;;;;;;5046477;28;20087;-45
2022/01/31 08:38:25;;;;;;;16.65;6.57;;;1.90;99.90;;;;;;5033995;28;20100;-46
2022/01/31 08:40:51;;;;;;;10.70;6.40;;;1.90;99.90;;;;;;5051519;28;20104;-48
2022/01/31 08:43:17;;;;;;;13.13;6.93;;;2.00;99.90;;;;;;5051413;28;20029;-45
2022/01/31 08:45:43;;;;;;;16.40;7.93;;;2.00;99.90;;;;;;5051405;28;20025;-44
2022/01/31 08:48:09;;;;;;;11.77;6.50;;;2.00;99.90;;;;;;5033762;28;20033;-45
2022/01/31 08:50:35;;;;;;;14.43;6.50;;;2.00;99.90;;;;;;5048369;28;20032;-45
2022/01/31 08:53:01;;;;;;;17.27;6.63;;;1.90;99.90;;;;;;5051092;28;20052;-47
2022/01/31 08:55:26;;;;;;;12.18;6.82;;;1.90;99.90;;;;;;5050918;28;20154;-45
2022/01/31 08:57:55;;;;;;;16.52;6.50;;;2.00;99.90;;;;;;5047820;28;20021;-48
2022/01/31 09:00:22;;;;;;;13.60;6.53;;;2.10;99.90;;;;;;5032727;28;20029;-46
2022/01/31 09:03:04;;;;;;;11.15;5.85;;;2.10;99.90;;;;;;5045367;28;20456;-45
2022/01/31 09:05:29;;;;;;;11.18;5.72;;;1.90;99.90;;;;;;5029873;28;20103;-46
2022/01/31 09:07:55;;;;;;;14.23;5.38;;;1.80;99.90;;;;;;5029106;28;20601;-46
2022/01/31 09:10:20;;;;;;;11.02;5.75;;;1.80;99.90;;;;;;5031399;28;20044;-46
2022/01/31 09:12:46;;;;;;;16.40;6.03;;;1.80;99.90;;;;;;5050826;28;20025;-47
2022/01/31 09:15:14;;;;;;;12.55;6.20;;;1.90;99.90;;;;;;5030658;28;20364;-46
2022/01/31 09:17:41;;;;;;;9.85;6.00;;;1.90;99.90;;;;;;5029620;28;20029;-46
2022/01/31 09:20:07;;;;;;;9.18;5.13;;;2.00;99.90;;;;;;5030689;28;20040;-46
2022/01/31 09:22:33;;;;;;;13.18;5.95;;;2.10;99.90;;;;;;5038185;28;20166;-47
2022/01/31 09:24:58;;;;;;;9.65;4.88;;;2.00;99.90;;;;;;5034411;28;20488;-48
2022/01/31 09:27:24;;;;;;;9.75;5.03;;;1.90;99.90;;;;;;5040731;28;20028;-46
2022/01/31 09:29:49;;;;;;;8.95;5.35;;;2.00;99.90;;;;;;5039533;28;20029;-45
2022/01/31 09:32:20;;;;;;;8.10;5.13;;;2.10;99.90;;;;;;5049331;28;20466;-46
2022/01/31 09:34:46;;;;;;;10.10;5.30;;;2.10;99.90;;;;;;5050702;28;20025;-46
2022/01/31 09:37:12;;;;;;;13.20;5.82;;;2.00;99.90;;;;;;5050242;28;20036;-46
2022/01/31 09:39:37;;;;;;;9.32;4.97;;;2.10;99.90;;;;;;5035814;28;20156;-46
2022/01/31 09:42:08;;;;;;;9.98;5.78;;;2.20;99.90;;;;;;5049056;28;20025;-46
2022/01/31 09:47:24;;;;;;;9.48;5.30;;;2.10;99.90;;;;;;5041430;28;20502;-46
2022/01/31 09:49:51;;;;;;;9.95;4.95;;;2.20;99.90;;;;;;5032222;28;20172;-46
2022/01/31 09:52:17;;;;;;;10.48;4.78;;;2.20;99.90;;;;;;5049866;28;20372;-48
2022/01/31 09:54:43;;;;;;;8.77;4.60;;;2.30;99.90;;;;;;5049659;28;20036;-46
2022/01/31 09:57:09;;;;;;;7.32;5.15;;;2.40;99.90;;;;;;5048817;28;20048;-46
2022/01/31 09:59:34;;;;;;;7.93;4.80;;;2.40;99.90;;;;;;5047477;28;20070;-47
2022/01/31 10:02:08;;;;;;;7.25;4.72;;;2.40;99.90;;;;;;5030098;28;20043;-45
2022/01/31 10:04:36;;;;;;;7.68;4.60;;;2.40;99.90;;;;;;5045825;28;20445;-47
2022/01/31 10:07:03;;;;;;;7.80;4.70;;;2.40;99.90;;;;;;5049860;28;20104;-47
2022/01/31 10:09:33;;;;;;;7.45;4.57;;;2.40;99.90;;;;;;5033296;28;20029;-46
2022/01/31 10:12:10;;;;;;;8.48;4.70;;;2.40;99.90;;;;;;5030038;28;20091;-47
2022/01/31 10:17:27;;;;;;;8.25;4.97;;;2.40;99.90;;;;;;5044049;28;20032;-46
2022/01/31 10:19:55;;;;;;;9.10;5.72;;;2.50;99.90;;;;;;5041834;28;20049;-46
2022/01/31 10:22:26;;;;;;;9.25;5.15;;;2.30;99.90;;;;;;5031356;28;20090;-45
2022/01/31 10:24:56;;;;;;;11.50;6.35;;;2.40;99.90;;;;;;5047555;28;20340;-46
2022/01/31 10:27:24;;;;;;;11.02;6.68;;;2.60;99.90;;;;;;5043723;28;20030;-49
2022/01/31 10:29:52;;;;;;;12.90;6.95;;;2.60;99.90;;;;;;5054454;28;20044;-49
2022/01/31 10:32:28;;;;;;;10.50;6.47;;;2.70;99.90;;;;;;5058507;28;20107;-48
2022/01/31 10:34:57;;;;;;;10.90;6.47;;;2.80;99.90;;;;;;5045048;28;20033;-49
2022/01/31 10:37:25;;;;;;;12.93;7.00;;;2.90;99.90;;;;;;5048410;28;20021;-49
2022/01/31 10:45:37;;;;;;;13.50;7.45;;;2.70;99.90;;;;;;5040013;28;20509;-46
2022/01/31 10:54:10;;;;;;;11.13;6.90;;;2.70;99.90;;;;;;5029888;28;20115;-50
2022/01/31 10:56:42;;;;;;;14.20;6.88;;;2.60;99.90;;;;;;5029461;28;20367;-49
2022/01/31 10:59:11;;;;;;;14.13;7.57;;;2.70;99.90;;;;;;5034828;28;20372;-46
2022/01/31 11:01:38;;;;;;;16.10;7.93;;;2.70;99.90;;;;;;5032623;28;20101;-47
2022/01/31 11:04:10;;;;;;;12.63;7.70;;;2.70;99.90;;;;;;5038679;28;20462;-48
2022/01/31 11:06:39;;;;;;;14.70;7.53;;;2.70;99.90;;;;;;5039760;28;20162;-47
2022/01/31 11:09:10;;;;;;;12.77;7.78;;;2.70;99.90;;;;;;5041644;28;20617;-47
2022/01/31 11:11:44;;;;;;;11.02;7.05;;;2.80;99.90;;;;;;5039705;28;20033;-46
2022/01/31 11:14:11;;;;;;;12.13;7.43;;;2.80;99.90;;;;;;5032646;28;20057;-46
2022/01/31 11:16:39;;;;;;;13.13;7.65;;;2.80;99.90;;;;;;5032823;28;20022;-46
2022/01/31 11:19:08;;;;;;;14.68;7.63;;;2.80;99.90;;;;;;5032362;28;20029;-48
2022/01/31 11:21:39;;;;;;;16.60;8.35;;;2.80;99.90;;;;;;5039556;28;20024;-46
2022/01/31 11:24:17;;;;;;;13.93;7.40;;;2.80;99.90;;;;;;5051872;28;20052;-46
2022/01/31 11:26:48;;;;;;;12.07;7.88;;;2.80;99.90;;;;;;5052589;28;20029;-46
2022/01/31 11:29:14;;;;;;;17.80;8.32;;;2.80;99.90;;;;;;5048910;28;20025;-46
2022/01/31 11:31:40;;;;;;;12.48;7.05;;;2.90;99.90;;;;;;5045366;28;20025;-46
2022/01/31 11:34:08;;;;;;;10.90;6.97;;;2.90;99.90;;;;;;5032237;28;20095;-46
2022/01/31 11:36:36;;;;;;;12.57;7.40;;;3.00;99.90;;;;;;5039375;28;20028;-48
2022/01/31 11:39:06;;;;;;;10.57;6.40;;;3.00;99.90;;;;;;5032964;28;20660;-46
2022/01/31 11:41:32;;;;;;;;;;;3.10;99.90;;;;;;5052661;28;20098;-47
2022/01/31 11:44:11;;;;;;;9.05;5.82;;;3.10;99.90;;;;;;5048174;28;20142;-47
2022/01/31 11:46:38;;;;;;;9.07;5.88;;;3.10;99.90;;;;;;5050953;28;20025;-46
2022/01/31 11:49:10;;;;;;;10.32;6.85;;;3.10;99.90;;;;;;5050641;28;20036;-48
2022/01/31 11:52:08;;;;;;;10.95;6.13;;;3.10;99.90;;;;;;5051967;28;20033;-47
2022/01/31 11:54:53;;;;;;;10.65;6.05;;;3.20;99.90;;;;;;5047157;28;20061;-46
2022/01/31 11:57:22;;;;;;;9.50;5.40;;;3.20;99.90;;;;;;5042805;28;20021;-46
2022/01/31 11:59:54;;;;;;;7.43;5.03;;;3.20;99.90;;;;;;5050377;28;20039;-47
2022/01/31 12:02:21;;;;;;;6.22;4.10;;;3.20;99.90;;;;;;5050705;28;20096;-47
2022/01/31 12:04:49;;;;;;;7.10;4.72;;;3.20;99.90;;;;;;5052179;28;20386;-47
2022/01/31 12:07:41;;;;;;;7.43;4.65;;;3.20;99.90;;;;;;5051631;28;20130;-47
2022/01/31 12:10:31;;;;;;;7.45;4.40;;;3.20;99.90;;;;;;5043800;28;20021;-44
2022/01/31 12:23:47;;;;;;;4.70;2.83;;;3.20;99.90;;;;;;5032215;28;20494;-47
2022/01/31 12:26:31;;;;;;;3.97;2.83;;;3.20;99.90;;;;;;5032031;28;20033;-45
2022/01/31 12:29:15;;;;;;;4.28;3.00;;;3.10;99.90;;;;;;5043049;28;20064;-44
2022/01/31 12:31:57;;;;;;;4.20;3.00;;;3.10;99.90;;;;;;5051647;28;20366;-45
2022/01/31 12:34:27;;;;;;;3.55;2.90;;;3.10;99.90;;;;;;5051765;28;20040;-44
2022/01/31 12:36:55;;;;;;;4.97;2.72;;;3.00;99.90;;;;;;5051772;28;20017;-45
2022/01/31 12:39:30;;;;;;;5.45;3.33;;;3.10;99.90;;;;;;5050403;28;20029;-45
2022/01/31 12:42:02;;;;;;;6.63;3.40;;;3.00;99.90;;;;;;5051590;28;20025;-49
2022/01/31 12:44:38;;;;;;;4.35;2.88;;;3.00;99.90;;;;;;5049590;28;20036;-49
2022/01/31 12:47:15;;;;;;;4.22;3.38;;;3.00;99.90;;;;;;5050034;28;20497;-45
2022/01/31 12:49:45;;;;;;;5.38;3.53;;;2.90;99.90;;;;;;5054998;28;20134;-44
2022/01/31 12:52:12;;;;;;;6.03;3.60;;;2.90;99.90;;;;;;5051208;28;20384;-47
2022/01/31 12:54:39;;;;;;;6.05;3.22;;;2.90;99.90;;;;;;5046054;28;20255;-45
2022/01/31 12:57:11;;;;;;;5.05;3.63;;;2.90;99.90;;;;;;5040072;28;20018;-45
2022/01/31 12:59:39;;;;;;;6.47;3.33;;;2.90;99.90;;;;;;5040049;28;20064;-47
2022/01/31 13:02:10;;;;;;;6.07;3.92;;;2.90;99.90;;;;;;5038468;28;20024;-44
2022/01/31 13:04:37;;;;;;;5.43;4.07;;;3.00;99.90;;;;;;5041243;28;20029;-47
2022/01/31 13:07:10;;;;;;;9.05;4.30;;;3.00;99.90;;;;;;5041765;28;20065;-47
2022/01/31 13:09:38;;;;;;;7.28;4.97;;;3.00;99.90;;;;;;5038323;28;20593;-44
2022/01/31 13:12:05;;;;;;;7.32;4.90;;;3.00;99.90;;;;;;5040126;28;20022;-44
2022/01/31 13:14:38;;;;;;;7.13;4.47;;;3.00;99.90;;;;;;5038842;28;20017;-47
2022/01/31 13:17:11;;;;;;;7.18;5.00;;;3.00;99.90;;;;;;5039547;28;20102;-46
2022/01/31 13:19:42;;;;;;;7.85;5.53;;;3.00;99.90;;;;;;5046998;28;20029;-46